ROMMA est une association bénévole à but non lucratif. Votre soutien est indispensable : ADHERER à ROMMA ou FAIRE un DON

Granges-lès-Beaumont - (26, Drôme)

Drôme des Collines (155 m)   Longitude: 04°58'E   Latitude: 45°03'N Station partenaire n°123
 

Détail journalier du     <<     >>

Température Precipitation Humidité Pression Vent Dir Rafale Dir. rafale Ensol.
Heure (°C) (mm) (%) (hPa) (km/h) (km/h) (min)
01:00 4.608810239NNO19NNO0
02:00 2.609210233---16E0
03:00 2.709510231SSE8SSE0
04:00 2.509410232SE10E0
05:00 3.309510233E13E0
06:00 2.809510247E16E0
07:00 2.709510232E8ESE0
08:00 4.409310235OSO19ONO0
09:00 4.6092102410NO23NNO0
10:00 5.009010255N13NO0
11:00 4.809310252ENE8N0
12:00 7.108510262---11NNE50
13:00 7.608510255ENE13E10
14:00 8.208110254NO11ONO0
15:00 8.408010258ONO18ONO20
16:00 8.907810268NO19ONO30
17:00 8.508110264N11N30
18:00 8.107410288NNO15NNO0
19:00 7.407910294NO10N0
20:00 8.308010281ONO8SO0
21:00 10.807210289NE24NE0
22:00 10.8073102816NE27NE0
23:00 8.707910287NO18NNE0
minuit 8.708010289NO15NO0

Graphique du 26-12-2019

 

Serveur OMMA